Time;durP1;ratioP1;P1;durP2;ratioP2;P2;SDS_P1;SDS_P2;PMS_P1;PMS_P2;Temp;Humidity;BMP_temperature;BMP_pressure;BME280_temperature;BME280_humidity;BME280_pressure;Samples;Min_cycle;Max_cycle;Signal;HPM_P1;HPM_P2
2023/04/21 00:02:21;;;;;;;20.98;11.45;;;9.20;99.90;;;;;;5094479;28;20105;-79
2023/04/21 00:04:48;;;;;;;16.38;10.23;;;9.20;99.90;;;;;;5076438;28;20397;-79
2023/04/21 00:07:14;;;;;;;19.60;11.00;;;9.20;99.90;;;;;;5060307;28;20497;-79
2023/04/21 00:09:41;;;;;;;18.17;11.43;;;9.20;99.90;;;;;;5075661;28;20059;-79
2023/04/21 00:12:07;;;;;;;19.98;10.93;;;9.20;99.90;;;;;;5076179;28;20431;-80
2023/04/21 00:14:32;;;;;;;20.33;11.25;;;9.20;99.90;;;;;;5076549;28;20044;-79
2023/04/21 00:16:59;;;;;;;23.13;11.87;;;9.20;99.90;;;;;;5075941;28;20357;-79
2023/04/21 00:19:25;;;;;;;;;;;9.20;99.90;;;;;;5076565;28;20320;-79
2023/04/21 00:21:50;;;;;;;20.40;11.20;;;9.20;99.90;;;;;;5059063;28;19915;-79
2023/04/21 00:24:16;;;;;;;21.70;11.05;;;9.20;99.90;;;;;;5076407;28;20044;-79
2023/04/21 00:26:42;;;;;;;21.40;11.23;;;9.20;99.90;;;;;;5075676;28;20481;-79
2023/04/21 00:29:08;;;;;;;23.13;10.70;;;9.10;99.90;;;;;;5059896;28;20546;-79
2023/04/21 00:31:33;;;;;;;17.23;10.20;;;9.20;99.90;;;;;;5075532;28;20293;-79
2023/04/21 00:33:59;;;;;;;22.17;11.43;;;9.10;99.90;;;;;;5075415;28;20059;-79
2023/04/21 00:36:27;;;;;;;21.00;11.27;;;9.10;99.90;;;;;;5075701;28;20464;-79
2023/04/21 00:38:53;;;;;;;20.13;10.65;;;9.00;99.90;;;;;;5075131;28;20101;-79
2023/04/21 00:41:18;;;;;;;22.90;11.43;;;9.10;99.90;;;;;;5076526;28;20136;-80
2023/04/21 00:44:03;;;;;;;19.90;9.90;;;9.00;99.90;;;;;;5059631;28;20123;-79
2023/04/21 00:46:29;;;;;;;20.02;10.85;;;9.00;99.90;;;;;;5059336;28;20278;-78
2023/04/21 00:48:55;;;;;;;24.92;11.32;;;9.00;99.90;;;;;;5076371;28;20438;-79
2023/04/21 00:51:21;;;;;;;24.95;11.38;;;9.00;99.90;;;;;;5077043;28;20040;-78
2023/04/21 00:53:47;;;;;;;20.70;11.20;;;8.90;99.90;;;;;;5109953;28;20046;-79
2023/04/21 00:56:13;;;;;;;22.52;10.80;;;8.90;99.90;;;;;;5076288;28;20044;-78
2023/04/21 00:58:42;;;;;;;19.58;10.48;;;8.90;99.90;;;;;;5075781;28;20051;-79
2023/04/21 01:01:08;;;;;;;19.52;10.23;;;8.90;99.90;;;;;;5110161;28;20441;-79
2023/04/21 01:03:34;;;;;;;19.77;11.27;;;8.90;99.90;;;;;;5075679;28;20130;-79
2023/04/21 01:06:00;;;;;;;18.15;10.70;;;8.80;99.90;;;;;;5075499;28;20042;-79
2023/04/21 01:08:26;;;;;;;18.75;10.88;;;8.80;99.90;;;;;;5091764;28;20510;-79
2023/04/21 01:10:52;;;;;;;20.02;10.52;;;8.70;99.90;;;;;;5074991;28;20047;-79
2023/04/21 01:13:21;;;;;;;20.65;11.68;;;8.70;99.90;;;;;;5075185;28;20051;-79
2023/04/21 01:15:47;;;;;;;19.67;11.15;;;8.70;99.90;;;;;;5075173;28;20044;-79
2023/04/21 01:18:13;;;;;;;;;;;8.70;99.90;;;;;;5109805;28;20408;-78
2023/04/21 01:20:39;;;;;;;23.85;13.10;;;8.60;99.90;;;;;;5059019;28;19916;-79
2023/04/21 01:23:06;;;;;;;20.02;10.70;;;8.60;99.90;;;;;;5059125;28;20036;-79
2023/04/21 01:25:32;;;;;;;24.30;10.70;;;8.60;99.90;;;;;;5075382;28;20112;-79
2023/04/21 01:27:58;;;;;;;24.77;11.88;;;8.60;99.90;;;;;;5074899;28;20122;-80
2023/04/21 01:30:23;;;;;;;19.98;10.93;;;8.60;99.90;;;;;;5058680;28;20500;-79
2023/04/21 01:32:49;;;;;;;22.58;12.55;;;8.60;99.90;;;;;;5058219;28;20036;-79
2023/04/21 01:35:15;;;;;;;23.25;10.95;;;8.50;99.90;;;;;;5074743;28;20047;-78
2023/04/21 01:37:41;;;;;;;20.52;11.15;;;8.50;99.90;;;;;;5024773;28;20044;-79
2023/04/21 01:40:08;;;;;;;19.92;10.93;;;8.50;99.90;;;;;;5074687;28;20126;-79
2023/04/21 01:42:41;;;;;;;21.38;11.02;;;8.50;99.90;;;;;;5074467;28;20040;-79
2023/04/21 01:45:08;;;;;;;19.50;11.90;;;8.50;99.90;;;;;;5074202;28;20043;-79
2023/04/21 01:47:34;;;;;;;20.17;11.90;;;8.50;99.90;;;;;;5108447;28;20052;-79
2023/04/21 01:49:59;;;;;;;20.17;10.98;;;8.50;99.90;;;;;;5074442;28;20146;-79
2023/04/21 01:52:25;;;;;;;18.33;10.73;;;8.40;99.90;;;;;;5074330;28;20076;-79
2023/04/21 01:54:51;;;;;;;18.23;10.60;;;8.40;99.90;;;;;;5057316;28;20381;-80
2023/04/21 01:57:17;;;;;;;21.92;11.60;;;8.40;99.90;;;;;;5074218;28;20497;-79
2023/04/21 01:59:43;;;;;;;20.13;11.88;;;8.40;99.90;;;;;;5074227;28;20531;-79
2023/04/21 02:02:09;;;;;;;19.13;10.27;;;8.40;99.90;;;;;;5057372;28;20068;-79
2023/04/21 02:04:35;;;;;;;22.93;11.03;;;8.30;99.90;;;;;;5074265;28;20082;-79
2023/04/21 02:07:00;;;;;;;20.20;12.60;;;8.30;99.90;;;;;;5057418;28;20290;-79
2023/04/21 02:09:26;;;;;;;23.23;12.43;;;8.30;99.90;;;;;;5091033;28;20381;-79
2023/04/21 02:11:53;;;;;;;18.00;10.77;;;8.30;99.90;;;;;;5075312;28;20039;-80
2023/04/21 02:14:19;;;;;;;20.35;10.95;;;8.30;99.90;;;;;;5075714;28;20036;-79
2023/04/21 02:16:45;;;;;;;26.20;12.53;;;8.30;99.90;;;;;;5074795;28;20038;-79
2023/04/21 02:19:10;;;;;;;19.55;11.43;;;8.30;99.90;;;;;;5074785;28;20094;-79
2023/04/21 02:21:36;;;;;;;19.20;10.50;;;8.30;99.90;;;;;;5058001;28;20054;-79
2023/04/21 02:24:02;;;;;;;19.07;11.37;;;8.20;99.90;;;;;;5074898;28;20046;-79
2023/04/21 02:26:28;;;;;;;22.77;11.43;;;8.20;99.90;;;;;;5074547;28;20328;-78
2023/04/21 02:28:53;;;;;;;21.20;11.63;;;8.20;99.90;;;;;;5057795;28;20134;-78
2023/04/21 02:31:19;;;;;;;23.53;12.03;;;8.30;99.90;;;;;;5057729;28;20293;-78
2023/04/21 02:33:45;;;;;;;22.73;12.10;;;8.20;99.90;;;;;;5074051;28;20143;-79
2023/04/21 02:36:11;;;;;;;26.45;12.13;;;8.20;99.90;;;;;;5107979;28;20130;-78
2023/04/21 02:38:36;;;;;;;23.67;12.45;;;8.20;99.90;;;;;;5057488;28;20524;-78
2023/04/21 02:41:02;;;;;;;24.57;12.77;;;8.10;99.90;;;;;;5060319;28;20043;-78
2023/04/21 02:43:27;;;;;;;24.37;12.93;;;8.10;99.90;;;;;;5061316;28;20356;-78
2023/04/21 02:45:53;;;;;;;23.25;12.52;;;8.10;99.90;;;;;;5077995;28;20036;-78
2023/04/21 02:48:21;;;;;;;27.30;12.70;;;8.10;99.90;;;;;;5077869;28;20048;-79
2023/04/21 02:50:49;;;;;;;19.98;11.85;;;8.10;99.90;;;;;;5077673;28;20044;-79
2023/04/21 02:53:15;;;;;;;24.70;12.13;;;8.10;99.90;;;;;;5061220;28;20048;-79
2023/04/21 02:55:41;;;;;;;27.13;13.10;;;8.10;99.90;;;;;;5044576;28;20388;-79
2023/04/21 02:58:07;;;;;;;19.98;11.45;;;8.10;99.90;;;;;;5061296;28;20040;-79
2023/04/21 03:00:32;;;;;;;24.93;12.43;;;8.20;99.90;;;;;;5078074;28;20078;-79
2023/04/21 03:02:58;;;;;;;22.60;12.00;;;8.20;99.90;;;;;;5077451;28;20357;-79
2023/04/21 03:05:24;;;;;;;21.23;11.20;;;8.20;99.90;;;;;;5077947;28;20712;-79
2023/04/21 03:07:49;;;;;;;21.43;11.83;;;8.20;99.90;;;;;;5077250;28;20298;-79
2023/04/21 03:10:15;;;;;;;22.02;11.25;;;8.20;99.90;;;;;;5078013;28;20274;-79
2023/04/21 03:12:41;;;;;;;22.98;10.90;;;8.20;99.90;;;;;;5044198;28;20043;-78
2023/04/21 03:15:07;;;;;;;24.98;11.98;;;8.20;99.90;;;;;;5077059;28;20409;-78
2023/04/21 03:17:32;;;;;;;24.23;12.50;;;8.20;99.90;;;;;;5077351;28;20044;-78
2023/04/21 03:19:58;;;;;;;20.17;12.33;;;8.20;99.90;;;;;;5077685;28;20047;-79
2023/04/21 03:22:24;;;;;;;20.57;11.20;;;8.10;99.90;;;;;;5077784;28;20323;-78
2023/04/21 03:24:50;;;;;;;18.92;11.13;;;8.10;99.90;;;;;;5077068;28;20032;-78
2023/04/21 03:27:15;;;;;;;21.05;12.32;;;8.10;99.90;;;;;;5077167;28;20509;-78
2023/04/21 03:29:41;;;;;;;20.58;12.05;;;8.10;99.90;;;;;;5060523;28;20044;-78
2023/04/21 03:32:07;;;;;;;22.13;12.02;;;8.10;99.90;;;;;;5060380;28;20044;-78
2023/04/21 03:34:32;;;;;;;20.37;10.90;;;8.10;99.90;;;;;;5060240;28;20521;-78
2023/04/21 03:36:58;;;;;;;21.23;12.00;;;8.10;99.90;;;;;;5060025;28;20402;-78
2023/04/21 03:39:24;;;;;;;22.33;13.00;;;8.00;99.90;;;;;;5077163;28;20689;-79
2023/04/21 03:41:50;;;;;;;24.20;13.23;;;8.00;99.90;;;;;;5043936;28;20510;-80
2023/04/21 03:44:15;;;;;;;25.65;11.57;;;8.10;99.90;;;;;;5077125;28;20784;-79
2023/04/21 03:46:41;;;;;;;26.63;12.75;;;7.90;99.90;;;;;;5077069;28;20119;-79
2023/04/21 03:49:07;;;;;;;26.30;12.37;;;7.90;99.90;;;;;;5076870;28;20047;-79
2023/04/21 03:51:32;;;;;;;19.23;10.40;;;7.90;99.90;;;;;;5060111;28;20075;-79
2023/04/21 03:53:58;;;;;;;24.40;11.03;;;7.90;99.90;;;;;;5076495;28;20040;-79
2023/04/21 03:56:24;;;;;;;23.08;12.35;;;7.90;99.90;;;;;;5076506;28;20282;-80
2023/04/21 03:58:50;;;;;;;21.23;11.30;;;7.90;99.90;;;;;;5076085;28;20123;-79
2023/04/21 04:01:16;;;;;;;23.65;11.40;;;7.80;99.90;;;;;;5059950;28;20035;-79
2023/04/21 04:03:41;;;;;;;25.17;12.53;;;7.80;99.90;;;;;;5059551;28;20070;-80
2023/04/21 04:06:07;;;;;;;21.73;12.50;;;7.80;99.90;;;;;;5059340;28;20036;-79
2023/04/21 04:08:33;;;;;;;21.77;11.27;;;7.80;99.90;;;;;;5059188;28;20318;-79
2023/04/21 04:10:58;;;;;;;22.38;12.65;;;7.80;99.90;;;;;;5075939;28;20782;-79
2023/04/21 04:13:25;;;;;;;22.15;12.02;;;7.80;99.90;;;;;;5076310;28;20032;-79
2023/04/21 04:15:51;;;;;;;25.05;12.10;;;7.80;99.90;;;;;;5059027;28;20047;-79
2023/04/21 04:18:17;;;;;;;21.17;11.88;;;7.80;99.90;;;;;;5109607;28;20118;-79
2023/04/21 04:20:43;;;;;;;17.03;10.77;;;7.80;99.90;;;;;;5075951;28;20129;-79
2023/04/21 04:23:08;;;;;;;19.70;10.32;;;7.70;99.90;;;;;;5059501;28;20481;-79
2023/04/21 04:25:36;;;;;;;24.70;11.90;;;7.80;99.90;;;;;;5076173;28;20036;-78
2023/04/21 04:28:01;;;;;;;19.45;11.43;;;7.80;99.90;;;;;;5058782;28;20043;-79
2023/04/21 04:30:28;;;;;;;19.48;11.25;;;7.80;99.90;;;;;;5059232;28;20113;-79
2023/04/21 04:32:54;;;;;;;22.17;11.25;;;7.80;99.90;;;;;;5075951;28;20523;-79
2023/04/21 04:35:20;;;;;;;21.08;11.85;;;7.80;99.90;;;;;;5075889;28;20475;-79
2023/04/21 04:37:45;;;;;;;22.80;11.38;;;7.80;99.90;;;;;;5059032;28;20076;-78
2023/04/21 04:40:11;;;;;;;23.48;11.52;;;7.90;99.90;;;;;;5075612;28;20484;-78
2023/04/21 04:42:38;;;;;;;20.05;10.73;;;7.80;99.90;;;;;;5058897;28;20051;-78
2023/04/21 04:45:07;;;;;;;21.42;10.95;;;7.90;99.90;;;;;;5075333;28;20048;-78
2023/04/21 04:47:36;;;;;;;21.33;11.32;;;7.90;99.90;;;;;;5076466;28;20130;-79
2023/04/21 04:50:03;;;;;;;19.73;11.13;;;7.90;99.90;;;;;;5112083;28;20043;-80
2023/04/21 04:52:29;;;;;;;17.67;10.55;;;7.90;99.90;;;;;;5077785;28;20501;-79
2023/04/21 04:54:54;;;;;;;17.88;9.82;;;7.90;99.90;;;;;;5076542;28;20055;-80
2023/04/21 04:57:20;;;;;;;16.77;9.20;;;7.90;99.90;;;;;;5075487;28;20044;-79
2023/04/21 04:59:46;;;;;;;20.90;10.40;;;7.90;99.90;;;;;;5075151;28;20504;-79
2023/04/21 05:02:11;;;;;;;19.93;10.17;;;7.90;99.90;;;;;;5057803;28;20072;-79
2023/04/21 05:04:37;;;;;;;18.75;10.73;;;7.90;99.90;;;;;;5058462;28;20299;-79
2023/04/21 05:07:05;;;;;;;16.90;10.00;;;8.00;99.90;;;;;;5075095;28;20049;-79
2023/04/21 05:09:30;;;;;;;18.90;10.35;;;8.00;99.90;;;;;;5074774;28;20074;-79
2023/04/21 05:11:56;;;;;;;18.23;9.65;;;8.00;99.90;;;;;;5074908;28;20119;-79
2023/04/21 05:14:22;;;;;;;19.40;10.17;;;8.00;99.90;;;;;;5074798;28;20040;-79
2023/04/21 05:16:47;;;;;;;21.23;10.93;;;8.00;99.90;;;;;;5041944;28;20043;-78
2023/04/21 05:19:13;;;;;;;16.53;9.07;;;8.10;99.90;;;;;;5091462;28;20310;-79
2023/04/21 05:21:39;;;;;;;23.20;10.50;;;8.10;99.90;;;;;;5074845;28;20051;-78
2023/04/21 05:24:05;;;;;;;18.95;10.27;;;8.10;99.90;;;;;;5058268;28;20312;-79
2023/04/21 05:26:31;;;;;;;19.20;9.30;;;8.20;99.90;;;;;;5042003;28;20489;-79
2023/04/21 05:28:57;;;;;;;20.00;9.18;;;8.20;99.90;;;;;;5074779;28;20089;-79
2023/04/21 05:31:24;;;;;;;15.55;9.38;;;8.30;99.90;;;;;;5108956;28;20072;-79
2023/04/21 05:33:49;;;;;;;;;;;8.30;99.90;;;;;;5075140;28;20040;-79
2023/04/21 05:36:15;;;;;;;15.85;9.63;;;8.40;99.90;;;;;;5074582;28;19978;-79
2023/04/21 05:38:41;;;;;;;17.08;9.15;;;8.50;99.90;;;;;;5074484;28;20055;-79
2023/04/21 05:41:07;;;;;;;15.65;8.85;;;8.50;99.90;;;;;;5074284;28;20378;-79
2023/04/21 05:43:33;;;;;;;15.98;8.27;;;8.60;99.90;;;;;;5057893;28;20496;-79
2023/04/21 05:46:07;;;;;;;16.77;9.15;;;8.60;99.90;;;;;;5074500;28;20447;-78
2023/04/21 05:48:33;;;;;;;13.77;8.75;;;8.70;99.90;;;;;;5074371;28;20526;-79
2023/04/21 05:51:16;;;;;;;19.20;9.80;;;8.70;99.90;;;;;;5074220;28;20039;-79
2023/04/21 05:53:43;;;;;;;16.15;8.65;;;8.80;99.90;;;;;;5074525;28;20056;-79
2023/04/21 05:56:10;;;;;;;18.15;8.63;;;8.90;99.90;;;;;;5074055;28;20050;-78
2023/04/21 05:58:35;;;;;;;;;;;9.00;99.90;;;;;;5074636;28;20127;-79
2023/04/21 06:01:02;;;;;;;15.60;8.25;;;9.10;99.90;;;;;;5074094;28;20346;-79
2023/04/21 06:03:30;;;;;;;12.73;8.13;;;9.20;99.90;;;;;;5074444;28;20036;-79
2023/04/21 06:05:56;;;;;;;17.10;8.30;;;9.30;99.90;;;;;;5074167;28;20549;-79
2023/04/21 06:08:22;;;;;;;17.60;9.00;;;9.40;99.90;;;;;;5074022;28;20079;-79
2023/04/21 06:10:48;;;;;;;;;;;9.50;99.90;;;;;;5074690;28;20469;-79
2023/04/21 06:13:14;;;;;;;14.80;7.70;;;9.60;99.90;;;;;;5074400;28;19974;-79
2023/04/21 06:15:39;;;;;;;19.88;9.00;;;9.60;99.90;;;;;;5078763;28;20035;-79
2023/04/21 06:18:05;;;;;;;21.60;8.53;;;9.70;99.90;;;;;;5077756;28;20052;-78
2023/04/21 06:20:31;;;;;;;15.33;8.40;;;9.80;99.90;;;;;;5078662;28;20294;-79
2023/04/21 06:22:56;;;;;;;12.68;8.10;;;10.00;99.90;;;;;;5078357;28;20083;-79
2023/04/21 06:25:22;;;;;;;16.45;8.30;;;10.10;99.90;;;;;;5078418;28;20040;-79
2023/04/21 06:27:48;;;;;;;14.55;8.10;;;10.30;99.90;;;;;;5078796;28;20040;-79
2023/04/21 06:30:14;;;;;;;14.60;7.88;;;10.40;99.90;;;;;;5078711;28;20089;-79
2023/04/21 06:32:40;;;;;;;12.80;6.95;;;10.40;99.90;;;;;;5079304;28;20080;-80
2023/04/21 06:35:05;;;;;;;15.32;7.93;;;10.60;99.90;;;;;;5080526;28;20040;-80
2023/04/21 06:37:31;;;;;;;14.98;7.10;;;10.70;99.90;;;;;;5080018;28;20150;-80
2023/04/21 06:39:57;;;;;;;16.17;7.77;;;11.20;99.90;;;;;;5081255;28;20098;-79
2023/04/21 06:42:22;;;;;;;12.43;7.20;;;11.60;99.90;;;;;;5099633;28;20316;-80
2023/04/21 06:44:48;;;;;;;10.35;6.32;;;11.90;99.90;;;;;;5066375;28;20405;-79
2023/04/21 06:47:15;;;;;;;10.93;7.20;;;12.10;99.90;;;;;;5066864;28;20048;-79
2023/04/21 06:49:41;;;;;;;16.95;6.68;;;12.30;99.90;;;;;;5083286;28;20492;-79
2023/04/21 06:52:07;;;;;;;10.00;6.35;;;12.60;99.90;;;;;;5081947;28;20097;-79
2023/04/21 06:54:33;;;;;;;16.52;7.70;;;12.70;99.90;;;;;;5083576;28;20048;-79
2023/04/21 06:56:58;;;;;;;11.88;7.38;;;12.70;99.90;;;;;;5084219;28;20101;-79
2023/04/21 06:59:24;;;;;;;13.70;7.07;;;12.80;99.90;;;;;;5083952;28;20040;-79
2023/04/21 07:01:53;;;;;;;12.20;5.97;;;13.00;99.90;;;;;;5089131;28;20122;-79
2023/04/21 07:04:20;;;;;;;14.93;6.82;;;13.30;99.90;;;;;;5070496;28;20040;-80
2023/04/21 07:06:46;;;;;;;14.52;7.25;;;13.40;99.90;;;;;;5088191;28;20036;-79
2023/04/21 07:09:12;;;;;;;12.30;6.65;;;13.70;99.90;;;;;;5085629;28;20087;-79
2023/04/21 07:11:37;;;;;;;11.02;6.95;;;13.70;99.90;;;;;;5073074;28;20040;-80
2023/04/21 07:14:03;;;;;;;14.35;6.93;;;13.70;99.90;;;;;;5090725;28;20044;-80
2023/04/21 07:16:29;;;;;;;13.20;6.55;;;14.00;99.90;;;;;;5073677;28;20044;-79
2023/04/21 07:18:55;;;;;;;12.60;6.70;;;14.10;99.90;;;;;;5072110;28;20040;-79
2023/04/21 07:21:21;;;;;;;13.10;6.70;;;14.30;99.90;;;;;;5091608;28;20067;-79
2023/04/21 07:23:46;;;;;;;11.35;6.90;;;14.40;99.90;;;;;;5088712;28;20040;-79
2023/04/21 07:26:12;;;;;;;12.60;6.97;;;14.20;99.90;;;;;;5085055;28;20040;-80
2023/04/21 07:28:39;;;;;;;11.40;6.57;;;14.40;99.90;;;;;;5087095;28;20036;-80
2023/04/21 07:31:05;;;;;;;12.45;7.05;;;14.80;99.90;;;;;;5086927;28;20505;-80
2023/04/21 07:33:31;;;;;;;12.93;6.20;;;15.00;99.90;;;;;;5088453;28;20039;-80
2023/04/21 07:35:57;;;;;;;11.05;6.40;;;15.20;99.90;;;;;;5087719;28;20040;-80
2023/04/21 07:38:23;;;;;;;12.20;6.80;;;15.40;99.90;;;;;;5088184;28;20044;-79
2023/04/21 07:40:49;;;;;;;11.77;6.50;;;15.50;99.90;;;;;;5086371;28;20046;-80
2023/04/21 07:43:15;;;;;;;10.30;6.03;;;15.20;99.90;;;;;;5066637;28;20118;-80
2023/04/21 07:45:41;;;;;;;12.30;6.60;;;15.40;99.90;;;;;;5122221;28;20096;-80
2023/04/21 07:48:07;;;;;;;12.50;6.68;;;15.50;99.90;;;;;;5088513;28;20127;-80
2023/04/21 07:50:35;;;;;;;13.07;6.45;;;15.30;99.90;;;;;;5073471;28;20072;-80
2023/04/21 07:53:01;;;;;;;12.48;6.68;;;15.60;99.90;;;;;;5071106;28;20040;-80
2023/04/21 07:55:27;;;;;;;13.95;6.60;;;15.90;99.90;;;;;;5084282;28;20036;-81
2023/04/21 07:57:53;;;;;;;;;;;15.90;99.90;;;;;;5088278;28;20048;-80
2023/04/21 08:00:19;;;;;;;11.48;6.22;;;15.90;99.90;;;;;;5074918;28;19916;-80
2023/04/21 08:02:45;;;;;;;9.15;6.00;;;15.90;99.90;;;;;;5074324;28;20090;-81
2023/04/21 08:05:11;;;;;;;9.70;6.30;;;16.00;99.90;;;;;;5087401;28;20124;-80
2023/04/21 08:07:37;;;;;;;16.27;6.35;;;16.00;99.90;;;;;;5069137;28;20128;-79
2023/04/21 08:10:03;;;;;;;11.20;6.20;;;16.10;99.90;;;;;;5087532;28;20056;-80
2023/04/21 08:12:28;;;;;;;10.50;5.90;;;16.00;99.90;;;;;;5088802;28;20055;-80
2023/04/21 08:14:54;;;;;;;13.82;6.65;;;16.20;99.90;;;;;;5093176;28;20051;-79
2023/04/21 08:17:20;;;;;;;12.80;6.82;;;16.40;99.90;;;;;;5094306;28;20040;-80
2023/04/21 08:19:45;;;;;;;10.07;6.25;;;16.70;99.90;;;;;;5094887;28;20044;-80
2023/04/21 08:22:11;;;;;;;10.52;6.38;;;16.80;99.90;;;;;;5093775;28;20109;-80
2023/04/21 08:24:37;;;;;;;10.45;6.80;;;17.00;99.90;;;;;;5093342;28;20100;-80
2023/04/21 08:27:03;;;;;;;14.60;7.05;;;16.90;99.90;;;;;;5087248;28;20159;-80
2023/04/21 08:29:29;;;;;;;13.40;6.35;;;16.90;99.90;;;;;;5066698;28;20058;-81
2023/04/21 08:31:55;;;;;;;12.77;6.95;;;17.10;99.90;;;;;;5084421;28;20538;-80
2023/04/21 08:34:21;;;;;;;12.23;6.22;;;17.20;99.90;;;;;;5084571;28;20040;-80
2023/04/21 08:36:47;;;;;;;;;;;17.30;99.90;;;;;;5082315;28;20055;-80
2023/04/21 08:39:15;;;;;;;14.73;6.65;;;17.30;99.90;;;;;;5063103;28;19977;-80
2023/04/21 08:41:40;;;;;;;10.18;6.43;;;17.40;99.90;;;;;;5081150;28;20043;-80
2023/04/21 08:44:07;;;;;;;11.10;6.30;;;17.60;99.90;;;;;;5114524;28;20036;-81
2023/04/21 08:46:34;;;;;;;15.88;7.15;;;17.80;99.90;;;;;;5082647;28;20052;-81
2023/04/21 08:49:01;;;;;;;9.85;6.30;;;18.00;99.90;;;;;;5079678;28;20071;-81
2023/04/21 08:51:29;;;;;;;12.40;6.43;;;18.10;99.90;;;;;;5079681;28;20043;-81
2023/04/21 08:53:55;;;;;;;10.65;6.25;;;18.30;99.90;;;;;;5078751;28;20043;-81
2023/04/21 08:56:23;;;;;;;;;;;18.50;99.90;;;;;;5077863;28;20031;-81
2023/04/21 08:58:48;;;;;;;13.23;6.03;;;18.60;99.90;;;;;;5077477;28;19931;-81
2023/04/21 09:01:14;;;;;;;10.52;6.20;;;18.80;99.90;;;;;;5077562;28;20040;-80
2023/04/21 09:03:40;;;;;;;12.90;6.57;;;19.00;99.90;;;;;;5078162;28;20028;-81
2023/04/21 09:06:08;;;;;;;13.63;6.18;;;19.10;99.90;;;;;;5076931;28;20488;-80
2023/04/21 09:08:40;;;;;;;11.68;6.00;;;19.10;99.90;;;;;;5076275;28;20091;-81
2023/04/21 09:11:06;;;;;;;10.75;6.88;;;19.10;99.90;;;;;;5078577;28;20169;-81
2023/04/21 09:13:35;;;;;;;10.80;6.32;;;18.70;99.90;;;;;;5078799;28;20056;-80
2023/04/21 09:16:04;;;;;;;12.35;6.22;;;18.90;99.90;;;;;;5080074;28;20455;-80
2023/04/21 09:18:34;;;;;;;9.65;5.78;;;19.20;99.90;;;;;;5062782;28;20047;-81
2023/04/21 09:21:14;;;;;;;11.82;6.30;;;19.50;99.90;;;;;;5080126;28;20487;-80
2023/04/21 09:23:51;;;;;;;11.07;5.53;;;20.00;99.90;;;;;;5078812;28;20067;-81
2023/04/21 09:26:19;;;;;;;11.30;5.88;;;20.00;99.90;;;;;;5078283;28;20051;-80
2023/04/21 09:28:49;;;;;;;12.63;6.03;;;20.20;99.90;;;;;;5079456;28;20070;-80
2023/04/21 09:31:18;;;;;;;10.50;6.32;;;20.00;99.90;;;;;;5079254;28;20385;-81
2023/04/21 09:33:45;;;;;;;11.75;6.75;;;20.50;99.90;;;;;;5081020;28;20044;-81
2023/04/21 09:36:21;;;;;;;10.43;6.10;;;20.60;99.90;;;;;;5078378;28;20040;-81
2023/04/21 09:39:08;;;;;;;10.85;6.05;;;20.80;99.90;;;;;;5062381;28;20047;-81
2023/04/21 09:41:34;;;;;;;10.95;5.55;;;20.80;99.90;;;;;;5077279;28;20098;-81
2023/04/21 09:44:00;;;;;;;11.32;6.22;;;21.10;99.90;;;;;;5078731;28;20497;-81
2023/04/21 09:46:28;;;;;;;12.15;5.97;;;20.90;99.90;;;;;;5079339;28;20408;-81
2023/04/21 09:48:55;;;;;;;11.73;5.53;;;20.80;99.90;;;;;;5062776;28;20040;-81
2023/04/21 09:51:23;;;;;;;9.10;5.40;;;21.00;99.90;;;;;;5082032;28;20048;-81
2023/04/21 09:53:57;;;;;;;13.27;5.43;;;20.90;99.90;;;;;;5081385;28;20152;-81
2023/04/21 09:56:27;;;;;;;12.65;5.60;;;20.80;99.90;;;;;;5063887;28;20089;-82
2023/04/21 09:58:56;;;;;;;13.15;5.95;;;21.00;99.90;;;;;;5079645;28;20055;-81
2023/04/21 10:01:25;;;;;;;12.52;6.13;;;21.10;99.90;;;;;;5079562;28;20121;-81
2023/04/21 10:03:52;;;;;;;12.20;6.15;;;21.10;99.90;;;;;;5079640;28;20107;-81
2023/04/21 10:06:18;;;;;;;13.00;6.18;;;21.10;99.30;;;;;;5077382;28;20115;-81
2023/04/21 10:08:44;;;;;;;;;;;21.20;99.70;;;;;;5113490;28;20064;-81
2023/04/21 10:11:11;;;;;;;;;;;21.20;99.50;;;;;;5065291;28;19920;-82
2023/04/21 10:13:38;;;;;;;11.50;5.95;;;21.40;99.60;;;;;;5071535;28;19926;-81
2023/04/21 10:16:10;;;;;;;9.90;5.78;;;21.50;98.80;;;;;;5075594;28;20044;-81
2023/04/21 10:18:44;;;;;;;13.15;6.43;;;21.90;99.30;;;;;;5074652;28;20040;-80
2023/04/21 10:21:12;;;;;;;11.60;5.57;;;22.10;98.60;;;;;;5076040;28;20465;-80
2023/04/21 10:23:42;;;;;;;12.57;5.93;;;21.90;98.30;;;;;;5091871;28;20044;-81
2023/04/21 10:26:14;;;;;;;10.55;6.13;;;21.90;98.40;;;;;;5091601;28;20044;-80
2023/04/21 10:28:44;;;;;;;11.63;5.90;;;21.70;98.40;;;;;;5090935;28;20028;-81
2023/04/21 10:31:18;;;;;;;10.90;6.63;;;22.10;98.90;;;;;;5074494;28;20024;-81
2023/04/21 10:34:06;;;;;;;11.10;5.97;;;22.30;98.10;;;;;;5092320;28;20062;-82
2023/04/21 10:36:34;;;;;;;11.75;6.03;;;22.50;98.10;;;;;;5091140;28;20048;-81
2023/04/21 10:39:04;;;;;;;12.65;6.28;;;22.70;98.20;;;;;;5091351;28;20044;-82
2023/04/21 10:41:32;;;;;;;8.55;5.75;;;23.00;97.90;;;;;;5074579;28;20119;-81
2023/04/21 10:44:10;;;;;;;11.13;6.00;;;23.20;97.60;;;;;;5074751;28;20032;-80
2023/04/21 10:46:47;;;;;;;8.60;5.55;;;23.10;96.90;;;;;;5092083;28;20036;-81
2023/04/21 10:49:22;;;;;;;;;;;23.20;96.70;;;;;;5076188;28;20046;-81
2023/04/21 10:51:57;;;;;;;13.75;6.45;;;23.00;96.70;;;;;;5092796;28;19963;-81
2023/04/21 10:54:26;;;;;;;14.07;6.07;;;23.10;96.70;;;;;;5087645;28;20052;-81
2023/04/21 10:56:56;;;;;;;12.43;5.82;;;23.40;96.50;;;;;;5085184;28;20075;-81
2023/04/21 10:59:23;;;;;;;12.20;5.50;;;23.30;95.80;;;;;;5067940;28;20063;-82
2023/04/21 11:01:49;;;;;;;11.15;5.53;;;23.30;96.00;;;;;;5084791;28;20115;-82
2023/04/21 11:04:15;;;;;;;;;;;23.00;95.80;;;;;;5068291;28;20078;-81
2023/04/21 11:06:40;;;;;;;8.73;4.82;;;23.00;95.40;;;;;;5066262;28;19920;-81
2023/04/21 11:09:06;;;;;;;10.52;4.95;;;22.80;95.70;;;;;;5084245;28;20088;-81
2023/04/21 11:11:32;;;;;;;;;;;22.70;95.50;;;;;;5085886;28;20043;-81
2023/04/21 11:14:01;;;;;;;10.77;5.15;;;22.50;95.40;;;;;;5084666;28;19916;-81
2023/04/21 11:16:27;;;;;;;8.55;4.70;;;22.40;95.40;;;;;;5082862;28;20047;-81
2023/04/21 11:18:55;;;;;;;;;;;22.30;95.60;;;;;;5081120;28;20077;-81
2023/04/21 11:21:21;;;;;;;7.32;4.60;;;22.50;95.60;;;;;;5080039;28;19923;-81
2023/04/21 11:23:52;;;;;;;8.35;4.45;;;22.70;95.70;;;;;;5080093;28;20040;-81
2023/04/21 11:26:28;;;;;;;9.77;4.57;;;23.00;95.60;;;;;;5063343;28;20040;-81
2023/04/21 11:28:53;;;;;;;7.80;4.00;;;23.30;94.80;;;;;;5080223;28;20047;-82
2023/04/21 11:31:19;;;;;;;9.25;5.03;;;23.30;94.50;;;;;;5082862;28;20286;-82
2023/04/21 11:33:44;;;;;;;;;;;23.00;94.00;;;;;;5081487;28;20489;-82
2023/04/21 11:36:10;;;;;;;9.98;4.45;;;23.00;94.40;;;;;;5063296;28;19920;-82
2023/04/21 11:38:40;;;;;;;;;;;23.20;94.50;;;;;;5080360;28;20404;-82
2023/04/21 11:41:06;;;;;;;8.70;3.97;;;23.30;94.20;;;;;;5079997;28;19938;-83
2023/04/21 11:43:32;;;;;;;6.38;3.13;;;23.50;93.90;;;;;;5079923;28;20043;-82
2023/04/21 11:46:32;;;;;;;;;;;23.80;94.10;;;;;;5063993;28;20051;-82
2023/04/21 11:49:10;;;;;;;12.02;4.13;;;24.00;94.00;;;;;;5037067;28;19919;-82
2023/04/21 11:51:40;;;;;;;7.20;4.07;;;23.90;93.20;;;;;;5080065;28;20070;-83
2023/04/21 11:54:08;;;;;;;8.93;3.80;;;23.10;93.50;;;;;;5080071;28;20553;-82
2023/04/21 11:56:42;;;;;;;9.07;3.40;;;22.50;93.40;;;;;;5079378;28;20079;-82
2023/04/21 11:59:15;;;;;;;10.55;3.65;;;22.70;93.60;;;;;;5080355;28;20039;-82
2023/04/21 12:01:47;;;;;;;9.35;3.72;;;23.10;93.80;;;;;;5079813;28;20047;-81
2023/04/21 12:04:26;;;;;;;8.20;3.30;;;23.30;93.20;;;;;;5079364;28;20088;-81
2023/04/21 12:07:00;;;;;;;7.00;3.67;;;23.30;93.00;;;;;;5079164;28;20136;-80
2023/04/21 12:09:27;;;;;;;8.30;4.05;;;23.50;92.60;;;;;;5078190;28;20063;-82
2023/04/21 12:11:56;;;;;;;9.50;3.33;;;23.50;92.70;;;;;;5080016;28;20133;-81
2023/04/21 12:14:23;;;;;;;8.95;3.47;;;23.10;91.90;;;;;;5080558;28;20503;-81
2023/04/21 12:16:52;;;;;;;6.63;3.55;;;22.80;92.50;;;;;;5079319;28;20094;-81
2023/04/21 12:19:22;;;;;;;7.72;3.35;;;22.50;92.30;;;;;;5078668;28;20035;-81
2023/04/21 12:21:55;;;;;;;6.57;3.28;;;22.50;92.60;;;;;;5079440;28;20044;-81
2023/04/21 12:24:21;;;;;;;6.32;3.10;;;22.30;92.40;;;;;;5078907;28;20143;-82
2023/04/21 12:26:47;;;;;;;;;;;22.50;92.80;;;;;;5062225;28;20064;-81
2023/04/21 12:29:13;;;;;;;9.40;3.03;;;22.90;92.20;;;;;;5078826;28;20377;-82
2023/04/21 12:31:38;;;;;;;;;;;23.60;91.60;;;;;;5080242;28;20040;-83
2023/04/21 12:34:04;;;;;;;5.57;2.13;;;24.00;91.70;;;;;;5081547;28;19955;-82
2023/04/21 12:36:30;;;;;;;;;;;23.80;90.60;;;;;;5065562;28;20063;-81
2023/04/21 12:38:56;;;;;;;11.27;2.45;;;23.40;90.00;;;;;;5048035;28;19923;-82
2023/04/21 12:41:21;;;;;;;;;;;23.30;90.30;;;;;;5080509;28;20071;-82
2023/04/21 12:43:47;;;;;;;9.43;3.22;;;23.40;89.70;;;;;;5062100;28;19920;-82
2023/04/21 12:46:12;;;;;;;;;;;23.60;90.00;;;;;;5078286;28;20044;-83